sensor_id;sensor_type;location;lat;lon;timestamp;P1;durP1;ratioP1;P2;durP2;ratioP2
22318;SDS011;11327;52.334;9.506;2022-12-29T00:02:16;3.08;;;2.50;;
22318;SDS011;11327;52.334;9.506;2022-12-29T00:05:37;4.55;;;2.30;;
22318;SDS011;11327;52.334;9.506;2022-12-29T00:08:58;3.55;;;2.10;;
22318;SDS011;11327;52.334;9.506;2022-12-29T00:12:19;3.40;;;2.40;;
22318;SDS011;11327;52.334;9.506;2022-12-29T00:15:40;3.08;;;2.10;;
22318;SDS011;11327;52.334;9.506;2022-12-29T00:19:01;3.67;;;1.98;;
22318;SDS011;11327;52.334;9.506;2022-12-29T00:22:22;2.77;;;2.10;;
22318;SDS011;11327;52.334;9.506;2022-12-29T00:26:08;3.45;;;1.80;;
22318;SDS011;11327;52.334;9.506;2022-12-29T00:29:56;2.30;;;1.90;;
22318;SDS011;11327;52.334;9.506;2022-12-29T00:33:35;2.50;;;2.00;;
22318;SDS011;11327;52.334;9.506;2022-12-29T00:37:15;3.27;;;2.05;;
22318;SDS011;11327;52.334;9.506;2022-12-29T00:40:36;3.15;;;1.80;;
22318;SDS011;11327;52.334;9.506;2022-12-29T00:44:16;3.52;;;1.90;;
22318;SDS011;11327;52.334;9.506;2022-12-29T00:47:37;3.90;;;1.62;;
22318;SDS011;11327;52.334;9.506;2022-12-29T00:50:58;2.47;;;1.70;;
22318;SDS011;11327;52.334;9.506;2022-12-29T00:54:19;2.52;;;1.47;;
22318;SDS011;11327;52.334;9.506;2022-12-29T00:57:40;2.12;;;1.10;;
22318;SDS011;11327;52.334;9.506;2022-12-29T01:01:05;2.27;;;1.20;;
22318;SDS011;11327;52.334;9.506;2022-12-29T01:04:27;2.45;;;1.45;;
22318;SDS011;11327;52.334;9.506;2022-12-29T01:07:48;2.20;;;1.40;;
22318;SDS011;11327;52.334;9.506;2022-12-29T01:11:10;4.10;;;2.30;;
22318;SDS011;11327;52.334;9.506;2022-12-29T01:14:32;10.00;;;5.87;;
22318;SDS011;11327;52.334;9.506;2022-12-29T01:17:53;9.45;;;6.15;;
22318;SDS011;11327;52.334;9.506;2022-12-29T01:21:15;8.68;;;4.22;;
22318;SDS011;11327;52.334;9.506;2022-12-29T01:24:36;7.45;;;4.78;;
22318;SDS011;11327;52.334;9.506;2022-12-29T01:27:57;6.65;;;4.90;;
22318;SDS011;11327;52.334;9.506;2022-12-29T01:31:18;7.87;;;5.17;;
22318;SDS011;11327;52.334;9.506;2022-12-29T01:34:38;4.72;;;3.20;;
22318;SDS011;11327;52.334;9.506;2022-12-29T01:38:00;8.25;;;4.40;;
22318;SDS011;11327;52.334;9.506;2022-12-29T01:41:21;7.15;;;4.75;;
22318;SDS011;11327;52.334;9.506;2022-12-29T01:44:49;4.92;;;3.42;;
22318;SDS011;11327;52.334;9.506;2022-12-29T01:48:18;3.85;;;2.58;;
22318;SDS011;11327;52.334;9.506;2022-12-29T01:55:16;6.42;;;2.65;;
22318;SDS011;11327;52.334;9.506;2022-12-29T01:58:39;4.80;;;2.02;;
22318;SDS011;11327;52.334;9.506;2022-12-29T02:02:03;2.50;;;1.75;;
22318;SDS011;11327;52.334;9.506;2022-12-29T02:05:27;2.37;;;1.72;;
22318;SDS011;11327;52.334;9.506;2022-12-29T02:08:52;3.10;;;1.60;;
22318;SDS011;11327;52.334;9.506;2022-12-29T02:12:20;3.08;;;1.85;;
22318;SDS011;11327;52.334;9.506;2022-12-29T02:23:02;2.00;;;1.47;;
22318;SDS011;11327;52.334;9.506;2022-12-29T02:40:55;2.30;;;1.30;;
22318;SDS011;11327;52.334;9.506;2022-12-29T02:51:14;2.25;;;1.40;;
22318;SDS011;11327;52.334;9.506;2022-12-29T02:54:37;3.22;;;1.25;;
22318;SDS011;11327;52.334;9.506;2022-12-29T02:58:15;2.17;;;1.10;;
22318;SDS011;11327;52.334;9.506;2022-12-29T03:09:42;1.85;;;1.30;;
22318;SDS011;11327;52.334;9.506;2022-12-29T03:17:03;1.60;;;1.20;;
22318;SDS011;11327;52.334;9.506;2022-12-29T03:20:26;1.65;;;1.20;;
22318;SDS011;11327;52.334;9.506;2022-12-29T03:23:50;2.17;;;1.30;;
22318;SDS011;11327;52.334;9.506;2022-12-29T03:27:12;2.20;;;1.25;;
22318;SDS011;11327;52.334;9.506;2022-12-29T03:30:35;1.52;;;1.20;;
22318;SDS011;11327;52.334;9.506;2022-12-29T03:33:58;2.87;;;1.00;;
22318;SDS011;11327;52.334;9.506;2022-12-29T03:37:26;1.55;;;1.20;;
22318;SDS011;11327;52.334;9.506;2022-12-29T03:40:45;1.80;;;1.12;;
22318;SDS011;11327;52.334;9.506;2022-12-29T03:44:12;1.65;;;0.90;;
22318;SDS011;11327;52.334;9.506;2022-12-29T03:47:34;1.80;;;1.07;;
22318;SDS011;11327;52.334;9.506;2022-12-29T03:50:54;2.10;;;1.00;;
22318;SDS011;11327;52.334;9.506;2022-12-29T03:54:15;1.65;;;0.90;;
22318;SDS011;11327;52.334;9.506;2022-12-29T03:57:38;1.20;;;0.98;;
22318;SDS011;11327;52.334;9.506;2022-12-29T04:00:59;1.20;;;0.80;;
22318;SDS011;11327;52.334;9.506;2022-12-29T04:04:20;1.40;;;0.70;;
22318;SDS011;11327;52.334;9.506;2022-12-29T04:07:41;0.80;;;0.70;;
22318;SDS011;11327;52.334;9.506;2022-12-29T04:11:02;1.25;;;0.78;;
22318;SDS011;11327;52.334;9.506;2022-12-29T04:14:23;1.35;;;0.60;;
22318;SDS011;11327;52.334;9.506;2022-12-29T04:17:44;0.93;;;0.60;;
22318;SDS011;11327;52.334;9.506;2022-12-29T04:21:05;0.80;;;0.60;;
22318;SDS011;11327;52.334;9.506;2022-12-29T04:24:27;1.00;;;0.60;;
22318;SDS011;11327;52.334;9.506;2022-12-29T04:27:48;0.90;;;0.60;;
22318;SDS011;11327;52.334;9.506;2022-12-29T04:31:09;0.90;;;0.60;;
22318;SDS011;11327;52.334;9.506;2022-12-29T04:34:30;1.50;;;0.60;;
22318;SDS011;11327;52.334;9.506;2022-12-29T04:37:51;1.37;;;0.60;;
22318;SDS011;11327;52.334;9.506;2022-12-29T04:41:12;0.90;;;0.60;;
22318;SDS011;11327;52.334;9.506;2022-12-29T04:44:33;1.30;;;0.80;;
22318;SDS011;11327;52.334;9.506;2022-12-29T04:47:54;2.80;;;0.98;;
22318;SDS011;11327;52.334;9.506;2022-12-29T04:51:15;2.33;;;1.25;;
22318;SDS011;11327;52.334;9.506;2022-12-29T04:54:36;0.98;;;0.60;;
22318;SDS011;11327;52.334;9.506;2022-12-29T04:57:57;1.10;;;0.50;;
22318;SDS011;11327;52.334;9.506;2022-12-29T05:01:18;1.45;;;0.80;;
22318;SDS011;11327;52.334;9.506;2022-12-29T05:04:39;1.70;;;0.90;;
22318;SDS011;11327;52.334;9.506;2022-12-29T05:08:00;1.70;;;0.82;;
22318;SDS011;11327;52.334;9.506;2022-12-29T05:11:21;2.50;;;1.10;;
22318;SDS011;11327;52.334;9.506;2022-12-29T05:14:42;1.10;;;0.80;;
22318;SDS011;11327;52.334;9.506;2022-12-29T05:18:03;0.70;;;0.47;;
22318;SDS011;11327;52.334;9.506;2022-12-29T05:21:24;1.40;;;0.40;;
22318;SDS011;11327;52.334;9.506;2022-12-29T05:24:45;1.25;;;0.50;;
22318;SDS011;11327;52.334;9.506;2022-12-29T05:28:06;1.77;;;0.60;;
22318;SDS011;11327;52.334;9.506;2022-12-29T05:31:27;0.85;;;0.50;;
22318;SDS011;11327;52.334;9.506;2022-12-29T05:34:48;1.30;;;0.60;;
22318;SDS011;11327;52.334;9.506;2022-12-29T05:38:09;0.65;;;0.50;;
22318;SDS011;11327;52.334;9.506;2022-12-29T05:41:30;0.90;;;0.33;;
22318;SDS011;11327;52.334;9.506;2022-12-29T05:44:51;0.88;;;0.40;;
22318;SDS011;11327;52.334;9.506;2022-12-29T05:48:14;1.52;;;0.57;;
22318;SDS011;11327;52.334;9.506;2022-12-29T05:51:35;4.47;;;2.27;;
22318;SDS011;11327;52.334;9.506;2022-12-29T05:54:56;1.47;;;1.00;;
22318;SDS011;11327;52.334;9.506;2022-12-29T05:58:17;2.22;;;0.60;;
22318;SDS011;11327;52.334;9.506;2022-12-29T06:01:38;1.10;;;0.70;;
22318;SDS011;11327;52.334;9.506;2022-12-29T06:04:59;1.95;;;1.10;;
22318;SDS011;11327;52.334;9.506;2022-12-29T06:08:20;4.00;;;1.50;;
22318;SDS011;11327;52.334;9.506;2022-12-29T06:11:41;4.28;;;1.77;;
22318;SDS011;11327;52.334;9.506;2022-12-29T06:15:03;0.95;;;0.50;;
22318;SDS011;11327;52.334;9.506;2022-12-29T06:18:25;11.60;;;5.70;;
22318;SDS011;11327;52.334;9.506;2022-12-29T06:21:46;4.80;;;3.30;;
22318;SDS011;11327;52.334;9.506;2022-12-29T06:25:07;2.40;;;1.50;;
22318;SDS011;11327;52.334;9.506;2022-12-29T06:28:29;2.87;;;1.10;;
22318;SDS011;11327;52.334;9.506;2022-12-29T06:31:50;0.85;;;0.60;;
22318;SDS011;11327;52.334;9.506;2022-12-29T06:35:11;1.25;;;1.07;;
22318;SDS011;11327;52.334;9.506;2022-12-29T06:38:32;0.80;;;0.60;;
22318;SDS011;11327;52.334;9.506;2022-12-29T06:41:53;1.20;;;0.80;;
22318;SDS011;11327;52.334;9.506;2022-12-29T06:45:15;1.00;;;0.50;;
22318;SDS011;11327;52.334;9.506;2022-12-29T06:48:36;1.67;;;0.70;;
22318;SDS011;11327;52.334;9.506;2022-12-29T06:51:57;2.47;;;1.40;;
22318;SDS011;11327;52.334;9.506;2022-12-29T06:55:20;1.22;;;0.70;;
22318;SDS011;11327;52.334;9.506;2022-12-29T06:58:41;1.57;;;0.80;;
22318;SDS011;11327;52.334;9.506;2022-12-29T07:02:02;1.85;;;0.80;;
22318;SDS011;11327;52.334;9.506;2022-12-29T07:05:23;0.80;;;0.50;;
22318;SDS011;11327;52.334;9.506;2022-12-29T07:08:46;1.32;;;0.53;;
22318;SDS011;11327;52.334;9.506;2022-12-29T07:12:07;0.80;;;0.50;;
22318;SDS011;11327;52.334;9.506;2022-12-29T07:15:28;1.57;;;0.40;;
22318;SDS011;11327;52.334;9.506;2022-12-29T07:18:49;1.20;;;0.30;;
22318;SDS011;11327;52.334;9.506;2022-12-29T07:22:11;0.80;;;0.40;;
22318;SDS011;11327;52.334;9.506;2022-12-29T07:25:32;1.77;;;0.33;;
22318;SDS011;11327;52.334;9.506;2022-12-29T07:28:55;1.05;;;0.50;;
22318;SDS011;11327;52.334;9.506;2022-12-29T07:32:16;3.27;;;0.50;;
22318;SDS011;11327;52.334;9.506;2022-12-29T07:35:37;0.50;;;0.35;;
22318;SDS011;11327;52.334;9.506;2022-12-29T07:38:58;2.00;;;0.60;;
22318;SDS011;11327;52.334;9.506;2022-12-29T07:42:19;0.95;;;0.50;;
22318;SDS011;11327;52.334;9.506;2022-12-29T07:45:40;0.80;;;0.40;;
22318;SDS011;11327;52.334;9.506;2022-12-29T07:49:01;1.65;;;0.40;;
22318;SDS011;11327;52.334;9.506;2022-12-29T07:52:22;1.67;;;0.60;;
22318;SDS011;11327;52.334;9.506;2022-12-29T07:55:43;1.75;;;0.50;;
22318;SDS011;11327;52.334;9.506;2022-12-29T07:59:04;1.70;;;0.70;;
22318;SDS011;11327;52.334;9.506;2022-12-29T08:02:25;0.80;;;0.50;;
22318;SDS011;11327;52.334;9.506;2022-12-29T08:05:50;1.77;;;0.78;;
22318;SDS011;11327;52.334;9.506;2022-12-29T08:09:11;1.05;;;0.60;;
22318;SDS011;11327;52.334;9.506;2022-12-29T08:12:31;1.82;;;0.90;;
22318;SDS011;11327;52.334;9.506;2022-12-29T08:15:52;2.67;;;0.90;;
22318;SDS011;11327;52.334;9.506;2022-12-29T08:19:14;2.33;;;0.93;;
22318;SDS011;11327;52.334;9.506;2022-12-29T08:22:35;2.85;;;0.80;;
22318;SDS011;11327;52.334;9.506;2022-12-29T08:25:56;1.98;;;1.02;;
22318;SDS011;11327;52.334;9.506;2022-12-29T08:29:18;3.12;;;1.10;;
22318;SDS011;11327;52.334;9.506;2022-12-29T08:32:39;3.12;;;0.70;;
22318;SDS011;11327;52.334;9.506;2022-12-29T08:36:01;3.98;;;0.90;;
22318;SDS011;11327;52.334;9.506;2022-12-29T08:39:23;3.25;;;0.82;;
22318;SDS011;11327;52.334;9.506;2022-12-29T08:42:44;2.77;;;0.78;;
22318;SDS011;11327;52.334;9.506;2022-12-29T08:46:05;5.03;;;1.07;;
22318;SDS011;11327;52.334;9.506;2022-12-29T08:49:26;4.05;;;0.90;;
22318;SDS011;11327;52.334;9.506;2022-12-29T08:52:47;2.75;;;0.93;;
22318;SDS011;11327;52.334;9.506;2022-12-29T08:56:09;2.37;;;0.80;;
22318;SDS011;11327;52.334;9.506;2022-12-29T08:59:31;3.67;;;1.30;;
22318;SDS011;11327;52.334;9.506;2022-12-29T09:02:52;2.90;;;1.05;;
22318;SDS011;11327;52.334;9.506;2022-12-29T09:06:14;4.72;;;1.00;;
22318;SDS011;11327;52.334;9.506;2022-12-29T09:09:37;4.15;;;1.35;;
22318;SDS011;11327;52.334;9.506;2022-12-29T09:12:58;3.27;;;1.00;;
22318;SDS011;11327;52.334;9.506;2022-12-29T09:16:20;4.90;;;1.20;;
22318;SDS011;11327;52.334;9.506;2022-12-29T09:19:43;4.28;;;1.57;;
22318;SDS011;11327;52.334;9.506;2022-12-29T09:23:04;5.17;;;2.05;;
22318;SDS011;11327;52.334;9.506;2022-12-29T09:26:26;4.62;;;1.52;;
22318;SDS011;11327;52.334;9.506;2022-12-29T09:29:47;4.03;;;1.50;;
22318;SDS011;11327;52.334;9.506;2022-12-29T09:33:08;3.35;;;1.50;;
22318;SDS011;11327;52.334;9.506;2022-12-29T09:36:29;2.47;;;1.17;;
22318;SDS011;11327;52.334;9.506;2022-12-29T09:39:50;2.17;;;1.42;;
22318;SDS011;11327;52.334;9.506;2022-12-29T09:46:40;2.47;;;1.47;;
22318;SDS011;11327;52.334;9.506;2022-12-29T09:50:05;3.37;;;2.12;;
22318;SDS011;11327;52.334;9.506;2022-12-29T09:56:58;2.95;;;1.60;;
22318;SDS011;11327;52.334;9.506;2022-12-29T10:00:20;2.67;;;1.60;;
22318;SDS011;11327;52.334;9.506;2022-12-29T10:03:50;1.95;;;1.45;;
22318;SDS011;11327;52.334;9.506;2022-12-29T10:07:19;2.40;;;1.40;;
22318;SDS011;11327;52.334;9.506;2022-12-29T10:10:53;2.65;;;1.60;;
22318;SDS011;11327;52.334;9.506;2022-12-29T10:14:17;2.98;;;1.40;;
22318;SDS011;11327;52.334;9.506;2022-12-29T10:17:39;2.92;;;1.22;;
22318;SDS011;11327;52.334;9.506;2022-12-29T10:21:08;3.47;;;1.70;;
22318;SDS011;11327;52.334;9.506;2022-12-29T10:24:31;2.75;;;1.40;;
22318;SDS011;11327;52.334;9.506;2022-12-29T10:27:54;2.98;;;1.87;;
22318;SDS011;11327;52.334;9.506;2022-12-29T10:31:21;2.65;;;1.20;;
22318;SDS011;11327;52.334;9.506;2022-12-29T10:34:45;4.20;;;1.80;;
22318;SDS011;11327;52.334;9.506;2022-12-29T10:38:20;3.00;;;1.50;;
22318;SDS011;11327;52.334;9.506;2022-12-29T10:45:13;3.85;;;1.30;;
22318;SDS011;11327;52.334;9.506;2022-12-29T10:48:36;3.15;;;1.30;;
22318;SDS011;11327;52.334;9.506;2022-12-29T10:51:58;3.50;;;1.30;;
22318;SDS011;11327;52.334;9.506;2022-12-29T10:55:22;3.27;;;1.02;;
22318;SDS011;11327;52.334;9.506;2022-12-29T10:58:52;3.12;;;1.60;;
22318;SDS011;11327;52.334;9.506;2022-12-29T11:06:03;5.15;;;1.65;;
22318;SDS011;11327;52.334;9.506;2022-12-29T11:09:29;3.33;;;1.20;;
22318;SDS011;11327;52.334;9.506;2022-12-29T11:13:00;3.15;;;1.40;;
22318;SDS011;11327;52.334;9.506;2022-12-29T11:16:38;2.95;;;1.42;;
22318;SDS011;11327;52.334;9.506;2022-12-29T11:19:51;2.40;;;1.20;;
22318;SDS011;11327;52.334;9.506;2022-12-29T11:23:25;5.60;;;1.52;;
22318;SDS011;11327;52.334;9.506;2022-12-29T11:26:49;4.70;;;1.23;;
22318;SDS011;11327;52.334;9.506;2022-12-29T11:30:24;2.72;;;1.40;;
22318;SDS011;11327;52.334;9.506;2022-12-29T11:33:47;6.42;;;1.50;;
22318;SDS011;11327;52.334;9.506;2022-12-29T11:37:12;5.35;;;1.07;;
22318;SDS011;11327;52.334;9.506;2022-12-29T11:40:38;3.58;;;1.10;;
22318;SDS011;11327;52.334;9.506;2022-12-29T11:44:01;4.37;;;1.15;;
22318;SDS011;11327;52.334;9.506;2022-12-29T11:50:52;3.42;;;1.00;;
22318;SDS011;11327;52.334;9.506;2022-12-29T11:54:19;4.37;;;1.10;;
22318;SDS011;11327;52.334;9.506;2022-12-29T11:57:46;4.15;;;1.65;;
22318;SDS011;11327;52.334;9.506;2022-12-29T12:01:15;3.55;;;1.25;;
22318;SDS011;11327;52.334;9.506;2022-12-29T12:04:44;2.25;;;0.90;;
22318;SDS011;11327;52.334;9.506;2022-12-29T12:11:34;6.28;;;1.07;;
22318;SDS011;11327;52.334;9.506;2022-12-29T12:14:58;3.45;;;1.12;;
22318;SDS011;11327;52.334;9.506;2022-12-29T12:18:30;4.92;;;1.10;;
22318;SDS011;11327;52.334;9.506;2022-12-29T12:21:54;4.45;;;1.10;;
22318;SDS011;11327;52.334;9.506;2022-12-29T12:25:21;3.52;;;0.93;;
22318;SDS011;11327;52.334;9.506;2022-12-29T12:43:52;6.12;;;0.90;;
22318;SDS011;11327;52.334;9.506;2022-12-29T12:47:22;4.83;;;1.10;;
22318;SDS011;11327;52.334;9.506;2022-12-29T13:20:45;2.35;;;0.90;;
22318;SDS011;11327;52.334;9.506;2022-12-29T13:31:30;7.35;;;1.32;;
22318;SDS011;11327;52.334;9.506;2022-12-29T13:35:20;5.22;;;1.45;;
22318;SDS011;11327;52.334;9.506;2022-12-29T13:38:36;3.25;;;1.07;;
22318;SDS011;11327;52.334;9.506;2022-12-29T13:42:10;3.47;;;1.12;;
22318;SDS011;11327;52.334;9.506;2022-12-29T13:45:32;5.12;;;1.30;;
22318;SDS011;11327;52.334;9.506;2022-12-29T13:49:00;4.15;;;1.10;;
22318;SDS011;11327;52.334;9.506;2022-12-29T13:52:42;3.55;;;1.30;;
22318;SDS011;11327;52.334;9.506;2022-12-29T13:56:28;2.55;;;1.20;;
22318;SDS011;11327;52.334;9.506;2022-12-29T14:00:01;7.22;;;1.32;;
22318;SDS011;11327;52.334;9.506;2022-12-29T14:04:03;4.33;;;1.77;;
22318;SDS011;11327;52.334;9.506;2022-12-29T14:07:04;9.20;;;1.80;;
22318;SDS011;11327;52.334;9.506;2022-12-29T14:13:56;4.75;;;1.30;;
22318;SDS011;11327;52.334;9.506;2022-12-29T14:17:19;2.55;;;1.37;;
22318;SDS011;11327;52.334;9.506;2022-12-29T14:20:57;6.10;;;2.20;;
22318;SDS011;11327;52.334;9.506;2022-12-29T14:24:28;6.65;;;2.12;;
22318;SDS011;11327;52.334;9.506;2022-12-29T14:28:00;6.20;;;2.30;;
22318;SDS011;11327;52.334;9.506;2022-12-29T14:35:00;5.30;;;1.70;;
22318;SDS011;11327;52.334;9.506;2022-12-29T14:38:23;4.83;;;2.22;;
22318;SDS011;11327;52.334;9.506;2022-12-29T14:41:46;5.28;;;1.90;;
22318;SDS011;11327;52.334;9.506;2022-12-29T14:45:08;5.47;;;1.40;;
22318;SDS011;11327;52.334;9.506;2022-12-29T14:48:44;5.08;;;1.60;;
22318;SDS011;11327;52.334;9.506;2022-12-29T14:52:06;4.55;;;1.42;;
22318;SDS011;11327;52.334;9.506;2022-12-29T14:55:45;4.97;;;1.70;;
22318;SDS011;11327;52.334;9.506;2022-12-29T14:59:08;4.87;;;1.40;;
22318;SDS011;11327;52.334;9.506;2022-12-29T15:02:32;3.85;;;1.37;;
22318;SDS011;11327;52.334;9.506;2022-12-29T15:06:07;4.70;;;1.37;;
22318;SDS011;11327;52.334;9.506;2022-12-29T15:09:47;4.58;;;1.65;;
22318;SDS011;11327;52.334;9.506;2022-12-29T15:13:16;7.25;;;1.57;;
22318;SDS011;11327;52.334;9.506;2022-12-29T15:16:48;4.72;;;1.47;;
22318;SDS011;11327;52.334;9.506;2022-12-29T15:23:45;4.85;;;1.70;;
22318;SDS011;11327;52.334;9.506;2022-12-29T15:27:07;6.40;;;1.30;;
22318;SDS011;11327;52.334;9.506;2022-12-29T15:51:33;7.72;;;2.33;;
22318;SDS011;11327;52.334;9.506;2022-12-29T15:54:56;6.28;;;1.90;;
22318;SDS011;11327;52.334;9.506;2022-12-29T15:58:23;4.12;;;1.70;;
22318;SDS011;11327;52.334;9.506;2022-12-29T16:01:46;4.90;;;1.80;;
22318;SDS011;11327;52.334;9.506;2022-12-29T16:05:14;5.80;;;2.47;;
22318;SDS011;11327;52.334;9.506;2022-12-29T16:08:39;4.78;;;1.82;;
22318;SDS011;11327;52.334;9.506;2022-12-29T16:12:02;6.90;;;2.15;;
22318;SDS011;11327;52.334;9.506;2022-12-29T16:15:25;4.60;;;1.80;;
22318;SDS011;11327;52.334;9.506;2022-12-29T16:18:49;4.50;;;1.75;;
22318;SDS011;11327;52.334;9.506;2022-12-29T16:22:33;6.30;;;1.90;;
22318;SDS011;11327;52.334;9.506;2022-12-29T16:25:38;5.12;;;2.10;;
22318;SDS011;11327;52.334;9.506;2022-12-29T16:29:01;4.78;;;2.00;;
22318;SDS011;11327;52.334;9.506;2022-12-29T16:32:27;7.00;;;2.30;;
22318;SDS011;11327;52.334;9.506;2022-12-29T16:35:49;6.67;;;2.65;;
22318;SDS011;11327;52.334;9.506;2022-12-29T17:28:35;5.22;;;1.50;;
22318;SDS011;11327;52.334;9.506;2022-12-29T17:31:56;6.67;;;1.72;;
22318;SDS011;11327;52.334;9.506;2022-12-29T17:35:18;3.77;;;1.40;;
22318;SDS011;11327;52.334;9.506;2022-12-29T17:38:40;5.22;;;1.47;;
22318;SDS011;11327;52.334;9.506;2022-12-29T17:42:01;5.33;;;1.70;;
22318;SDS011;11327;52.334;9.506;2022-12-29T17:45:23;2.83;;;0.85;;
22318;SDS011;11327;52.334;9.506;2022-12-29T17:48:45;6.17;;;1.60;;
22318;SDS011;11327;52.334;9.506;2022-12-29T17:52:06;7.40;;;1.65;;
22318;SDS011;11327;52.334;9.506;2022-12-29T17:55:27;3.70;;;1.00;;
22318;SDS011;11327;52.334;9.506;2022-12-29T17:58:48;10.10;;;1.30;;
22318;SDS011;11327;52.334;9.506;2022-12-29T18:02:21;6.17;;;1.42;;
22318;SDS011;11327;52.334;9.506;2022-12-29T18:05:40;5.20;;;1.55;;
22318;SDS011;11327;52.334;9.506;2022-12-29T18:09:01;3.17;;;1.30;;
22318;SDS011;11327;52.334;9.506;2022-12-29T18:12:57;1.85;;;0.70;;
22318;SDS011;11327;52.334;9.506;2022-12-29T18:15:55;2.72;;;1.25;;
22318;SDS011;11327;52.334;9.506;2022-12-29T18:19:16;2.62;;;1.10;;
22318;SDS011;11327;52.334;9.506;2022-12-29T18:22:37;1.35;;;0.70;;
22318;SDS011;11327;52.334;9.506;2022-12-29T18:25:58;1.10;;;0.50;;
22318;SDS011;11327;52.334;9.506;2022-12-29T18:29:21;2.52;;;0.80;;
22318;SDS011;11327;52.334;9.506;2022-12-29T18:32:41;3.00;;;0.70;;
22318;SDS011;11327;52.334;9.506;2022-12-29T18:36:03;2.05;;;0.80;;
22318;SDS011;11327;52.334;9.506;2022-12-29T18:39:24;2.65;;;1.00;;
22318;SDS011;11327;52.334;9.506;2022-12-29T18:42:45;2.27;;;0.93;;
22318;SDS011;11327;52.334;9.506;2022-12-29T18:46:06;3.62;;;0.90;;
22318;SDS011;11327;52.334;9.506;2022-12-29T18:49:27;1.85;;;0.88;;
22318;SDS011;11327;52.334;9.506;2022-12-29T18:52:47;2.83;;;0.75;;
22318;SDS011;11327;52.334;9.506;2022-12-29T18:56:08;2.52;;;1.05;;
22318;SDS011;11327;52.334;9.506;2022-12-29T18:59:29;4.00;;;1.22;;
22318;SDS011;11327;52.334;9.506;2022-12-29T19:02:50;3.87;;;1.40;;
22318;SDS011;11327;52.334;9.506;2022-12-29T19:06:11;4.90;;;1.27;;
22318;SDS011;11327;52.334;9.506;2022-12-29T19:09:32;3.35;;;1.42;;
22318;SDS011;11327;52.334;9.506;2022-12-29T19:12:53;5.80;;;1.87;;
22318;SDS011;11327;52.334;9.506;2022-12-29T19:16:18;5.00;;;1.60;;
22318;SDS011;11327;52.334;9.506;2022-12-29T19:19:40;3.27;;;1.70;;
22318;SDS011;11327;52.334;9.506;2022-12-29T19:23:03;7.37;;;1.70;;
22318;SDS011;11327;52.334;9.506;2022-12-29T19:26:29;3.85;;;1.50;;
22318;SDS011;11327;52.334;9.506;2022-12-29T19:29:53;5.85;;;1.60;;
22318;SDS011;11327;52.334;9.506;2022-12-29T19:33:14;4.15;;;1.40;;
22318;SDS011;11327;52.334;9.506;2022-12-29T19:36:36;3.42;;;1.45;;
22318;SDS011;11327;52.334;9.506;2022-12-29T19:39:56;3.47;;;1.22;;
22318;SDS011;11327;52.334;9.506;2022-12-29T19:43:17;3.25;;;0.90;;
22318;SDS011;11327;52.334;9.506;2022-12-29T19:46:38;4.33;;;1.30;;
22318;SDS011;11327;52.334;9.506;2022-12-29T19:49:59;4.62;;;1.07;;
22318;SDS011;11327;52.334;9.506;2022-12-29T19:53:20;5.33;;;1.10;;
22318;SDS011;11327;52.334;9.506;2022-12-29T19:56:41;3.17;;;0.78;;
22318;SDS011;11327;52.334;9.506;2022-12-29T20:00:03;3.70;;;1.10;;
22318;SDS011;11327;52.334;9.506;2022-12-29T20:03:25;6.45;;;1.10;;
22318;SDS011;11327;52.334;9.506;2022-12-29T20:06:45;3.47;;;0.80;;
22318;SDS011;11327;52.334;9.506;2022-12-29T20:10:06;4.42;;;0.90;;
22318;SDS011;11327;52.334;9.506;2022-12-29T20:13:29;3.55;;;0.68;;
22318;SDS011;11327;52.334;9.506;2022-12-29T20:16:50;2.95;;;0.80;;
22318;SDS011;11327;52.334;9.506;2022-12-29T20:20:11;5.65;;;0.95;;
22318;SDS011;11327;52.334;9.506;2022-12-29T20:23:33;4.25;;;0.80;;
22318;SDS011;11327;52.334;9.506;2022-12-29T20:26:55;2.87;;;0.90;;
22318;SDS011;11327;52.334;9.506;2022-12-29T20:30:15;4.67;;;0.90;;
22318;SDS011;11327;52.334;9.506;2022-12-29T20:33:37;3.85;;;1.20;;
22318;SDS011;11327;52.334;9.506;2022-12-29T20:36:57;4.72;;;2.12;;
22318;SDS011;11327;52.334;9.506;2022-12-29T20:40:18;5.47;;;2.22;;
22318;SDS011;11327;52.334;9.506;2022-12-29T20:47:44;4.42;;;1.42;;
22318;SDS011;11327;52.334;9.506;2022-12-29T20:51:05;6.62;;;2.08;;
22318;SDS011;11327;52.334;9.506;2022-12-29T20:54:25;6.60;;;2.17;;
22318;SDS011;11327;52.334;9.506;2022-12-29T20:57:46;6.37;;;2.40;;
22318;SDS011;11327;52.334;9.506;2022-12-29T21:01:07;5.03;;;1.15;;
22318;SDS011;11327;52.334;9.506;2022-12-29T21:04:30;3.17;;;1.20;;
22318;SDS011;11327;52.334;9.506;2022-12-29T21:07:52;4.03;;;1.00;;
22318;SDS011;11327;52.334;9.506;2022-12-29T21:11:13;5.00;;;1.30;;
22318;SDS011;11327;52.334;9.506;2022-12-29T21:14:34;5.50;;;1.60;;
22318;SDS011;11327;52.334;9.506;2022-12-29T21:17:54;5.62;;;1.90;;
22318;SDS011;11327;52.334;9.506;2022-12-29T21:21:20;5.47;;;1.85;;
22318;SDS011;11327;52.334;9.506;2022-12-29T21:24:40;6.42;;;1.95;;
22318;SDS011;11327;52.334;9.506;2022-12-29T21:28:00;7.33;;;2.00;;
22318;SDS011;11327;52.334;9.506;2022-12-29T21:34:46;5.97;;;2.02;;
22318;SDS011;11327;52.334;9.506;2022-12-29T21:38:07;5.28;;;2.58;;
22318;SDS011;11327;52.334;9.506;2022-12-29T21:41:28;5.70;;;2.30;;
22318;SDS011;11327;52.334;9.506;2022-12-29T21:44:50;10.53;;;2.83;;
22318;SDS011;11327;52.334;9.506;2022-12-29T21:48:29;6.87;;;2.70;;
22318;SDS011;11327;52.334;9.506;2022-12-29T21:51:50;5.08;;;2.40;;
22318;SDS011;11327;52.334;9.506;2022-12-29T21:55:13;8.30;;;2.52;;
22318;SDS011;11327;52.334;9.506;2022-12-29T21:58:34;7.83;;;3.10;;
22318;SDS011;11327;52.334;9.506;2022-12-29T22:02:24;4.83;;;2.27;;
22318;SDS011;11327;52.334;9.506;2022-12-29T22:06:08;6.58;;;2.58;;
22318;SDS011;11327;52.334;9.506;2022-12-29T22:09:48;6.78;;;2.42;;
22318;SDS011;11327;52.334;9.506;2022-12-29T22:13:32;8.85;;;3.02;;
22318;SDS011;11327;52.334;9.506;2022-12-29T22:16:54;7.58;;;2.72;;
22318;SDS011;11327;52.334;9.506;2022-12-29T22:20:15;8.58;;;2.80;;
22318;SDS011;11327;52.334;9.506;2022-12-29T22:23:37;8.63;;;2.75;;
22318;SDS011;11327;52.334;9.506;2022-12-29T22:26:58;5.87;;;2.50;;
22318;SDS011;11327;52.334;9.506;2022-12-29T22:30:19;6.67;;;2.75;;
22318;SDS011;11327;52.334;9.506;2022-12-29T22:33:43;8.58;;;2.77;;
22318;SDS011;11327;52.334;9.506;2022-12-29T22:37:04;9.48;;;2.50;;
22318;SDS011;11327;52.334;9.506;2022-12-29T22:40:25;6.15;;;2.58;;
22318;SDS011;11327;52.334;9.506;2022-12-29T22:43:46;7.00;;;2.37;;
22318;SDS011;11327;52.334;9.506;2022-12-29T22:47:06;7.55;;;2.75;;
22318;SDS011;11327;52.334;9.506;2022-12-29T22:50:27;10.70;;;2.58;;
22318;SDS011;11327;52.334;9.506;2022-12-29T22:53:48;9.55;;;2.72;;
22318;SDS011;11327;52.334;9.506;2022-12-29T22:57:09;9.05;;;2.72;;
22318;SDS011;11327;52.334;9.506;2022-12-29T23:00:30;11.50;;;3.25;;
22318;SDS011;11327;52.334;9.506;2022-12-29T23:03:51;8.93;;;3.22;;
22318;SDS011;11327;52.334;9.506;2022-12-29T23:07:11;14.05;;;3.47;;
22318;SDS011;11327;52.334;9.506;2022-12-29T23:10:32;9.93;;;2.87;;
22318;SDS011;11327;52.334;9.506;2022-12-29T23:13:53;12.33;;;3.42;;
22318;SDS011;11327;52.334;9.506;2022-12-29T23:17:14;9.38;;;2.62;;
22318;SDS011;11327;52.334;9.506;2022-12-29T23:20:34;11.53;;;3.17;;
22318;SDS011;11327;52.334;9.506;2022-12-29T23:23:55;14.65;;;3.85;;
22318;SDS011;11327;52.334;9.506;2022-12-29T23:27:16;12.03;;;3.22;;
22318;SDS011;11327;52.334;9.506;2022-12-29T23:30:37;9.25;;;2.65;;
22318;SDS011;11327;52.334;9.506;2022-12-29T23:34:01;10.90;;;3.17;;
22318;SDS011;11327;52.334;9.506;2022-12-29T23:37:23;11.80;;;2.92;;
22318;SDS011;11327;52.334;9.506;2022-12-29T23:40:44;11.95;;;3.30;;
22318;SDS011;11327;52.334;9.506;2022-12-29T23:44:04;10.23;;;3.10;;
22318;SDS011;11327;52.334;9.506;2022-12-29T23:47:25;11.03;;;2.90;;
22318;SDS011;11327;52.334;9.506;2022-12-29T23:50:46;12.58;;;3.15;;
22318;SDS011;11327;52.334;9.506;2022-12-29T23:54:07;11.80;;;3.08;;